createdAt,value
2019-04-22T00:00:24.577Z,62.11
2019-04-22T00:01:25.875Z,62.78
2019-04-22T00:02:22.583Z,63.64
2019-04-22T00:03:27.414Z,64.02
2019-04-22T00:04:33.834Z,64.21
2019-04-22T00:05:42.772Z,64.12
2019-04-22T00:06:46.472Z,64.78
2019-04-22T00:07:46.311Z,65.80
2019-04-22T00:08:42.872Z,65.23
2019-04-22T00:09:47.425Z,65.04
2019-04-22T00:10:52.018Z,65.33
2019-04-22T00:11:45.699Z,65.23
2019-04-22T00:12:50.051Z,65.42
2019-04-22T00:13:56.996Z,64.09
2019-04-22T00:14:42.108Z,63.70
2019-04-22T00:15:42.417Z,63.80
2019-04-22T00:16:51.734Z,64.09
2019-04-22T00:17:53.788Z,63.89
2019-04-22T00:19:01.346Z,64.18
2019-04-22T00:19:53.833Z,63.80
2019-04-22T00:20:42.304Z,63.80
2019-04-22T00:21:51.200Z,63.80
2019-04-22T00:22:44.853Z,63.99
2019-04-22T00:23:45.309Z,63.60
2019-04-22T00:24:48.149Z,64.47
2019-04-22T00:25:49.406Z,63.60
2019-04-22T00:27:51.162Z,62.84
2019-04-22T00:28:52.185Z,63.80
2019-04-22T00:30:51.582Z,64.09
2019-04-22T00:31:40.391Z,64.09
2019-04-22T00:32:46.356Z,64.28
2019-04-22T00:33:39.369Z,64.65
2019-04-22T00:34:42.686Z,65.04
2019-04-22T00:35:43.921Z,65.33
2019-04-22T00:36:43.737Z,64.85
2019-04-22T00:37:43.284Z,64.28
2019-04-22T00:38:46.797Z,64.47
2019-04-22T00:39:46.581Z,64.37
2019-04-22T00:40:44.967Z,65.33
2019-04-22T00:41:43.831Z,64.75
2019-04-22T00:42:47.217Z,65.23
2019-04-22T00:43:48.135Z,65.33
2019-04-22T00:44:46.838Z,65.89
2019-04-22T00:45:44.726Z,65.23
2019-04-22T00:46:46.396Z,65.23
2019-04-22T00:47:46.253Z,65.77
2019-04-22T00:48:48.911Z,66.28
2019-04-22T00:50:48.212Z,65.48
2019-04-22T00:51:52.386Z,65.42
2019-04-22T00:52:39.897Z,65.04
2019-04-22T00:53:44.980Z,64.85
2019-04-22T00:54:48.968Z,65.42
2019-04-22T00:55:40.412Z,66.38
2019-04-22T00:56:40.831Z,66.56
2019-04-22T00:57:43.609Z,66.72
2019-04-22T00:58:41.356Z,65.77
2019-04-22T00:59:50.698Z,65.10
2019-04-22T01:00:51.481Z,65.42
2019-04-22T01:01:37.081Z,66.05
2019-04-22T01:03:51.085Z,66.15
2019-04-22T01:05:40.871Z,64.91
2019-04-22T01:06:38.832Z,64.47
2019-04-22T01:07:45.088Z,64.85
2019-04-22T01:08:51.409Z,64.94
2019-04-22T01:09:44.635Z,64.85
2019-04-22T01:10:49.844Z,65.13
2019-04-22T01:11:37.591Z,64.65
2019-04-22T01:12:39.200Z,64.37
2019-04-22T01:13:42.721Z,63.89
2019-04-22T01:14:41.311Z,64.37
2019-04-22T01:15:40.580Z,63.13
2019-04-22T01:17:43.502Z,61.73
2019-04-22T01:18:37.664Z,61.63
2019-04-22T01:19:47.237Z,61.73
2019-04-22T01:21:00.511Z,61.25
2019-04-22T01:21:40.921Z,61.54
2019-04-22T01:22:34.177Z,62.49
2019-04-22T01:23:34.392Z,62.21
2019-04-22T01:24:34.205Z,62.68
2019-04-22T01:25:37.514Z,63.07
2019-04-22T01:26:36.264Z,63.23
2019-04-22T01:27:30.983Z,63.70
2019-04-22T01:28:30.156Z,64.75
2019-04-22T01:29:32.141Z,64.75
2019-04-22T01:30:27.865Z,63.70
2019-04-22T01:31:20.315Z,64.18
2019-04-22T01:32:22.906Z,65.13
2019-04-22T01:34:32.211Z,65.80
2019-04-22T01:35:31.100Z,67.00
2019-04-22T01:36:38.681Z,67.20
2019-04-22T01:37:34.621Z,67.58
2019-04-22T01:38:43.373Z,67.48
2019-04-22T01:39:43.561Z,67.39
2019-04-22T01:40:45.422Z,68.05
2019-04-22T01:41:48.368Z,67.68
2019-04-22T01:42:45.350Z,67.48
2019-04-22T01:43:54.487Z,67.86
2019-04-22T01:44:38.827Z,67.86
2019-04-22T01:45:39.383Z,68.15
2019-04-22T01:46:47.630Z,67.58
2019-04-22T01:47:36.414Z,68.15
2019-04-22T01:48:39.429Z,67.77
2019-04-22T01:49:44.159Z,68.53
2019-04-22T01:50:38.494Z,67.77
2019-04-22T01:51:51.798Z,68.05
2019-04-22T01:52:41.144Z,68.05
2019-04-22T01:53:43.518Z,66.82
2019-04-22T01:54:40.306Z,65.58
2019-04-22T01:55:39.180Z,65.13
2019-04-22T01:56:41.072Z,64.56
2019-04-22T01:57:36.457Z,63.60
2019-04-22T01:58:33.261Z,63.23
2019-04-22T01:59:31.737Z,64.75
2019-04-22T02:00:42.465Z,65.13
2019-04-22T02:01:43.592Z,66.28
2019-04-22T02:03:40.055Z,65.80
2019-04-22T02:04:53.748Z,65.70
2019-04-22T02:07:29.432Z,65.86
2019-04-22T02:08:40.859Z,65.86
2019-04-22T02:09:31.653Z,65.61
2019-04-22T02:10:35.988Z,66.15
2019-04-22T02:11:33.871Z,66.53
2019-04-22T02:12:27.697Z,66.82
2019-04-22T02:13:35.327Z,67.20
2019-04-22T02:14:37.306Z,67.86
2019-04-22T02:16:21.177Z,66.82
2019-04-22T02:17:26.468Z,67.10
2019-04-22T02:19:19.162Z,67.86
2019-04-22T02:22:11.537Z,65.86
2019-04-22T02:23:40.223Z,65.04
2019-04-22T02:24:21.846Z,63.80
2019-04-22T02:25:24.173Z,64.75
2019-04-22T02:26:18.092Z,64.09
2019-04-22T02:28:28.337Z,61.60
2019-04-22T02:29:15.018Z,63.13
2019-04-22T02:30:14.253Z,63.04
2019-04-22T02:31:32.568Z,61.07
2019-04-22T02:32:27.319Z,61.44
2019-04-22T02:35:36.517Z,60.39
2019-04-22T02:37:18.855Z,61.73
2019-04-22T02:38:34.145Z,62.88
2019-04-22T02:39:19.872Z,61.73
2019-04-22T02:40:17.328Z,61.73
2019-04-22T02:42:13.690Z,61.25
2019-04-22T02:43:34.037Z,61.92
2019-04-22T02:44:20.454Z,60.49
2019-04-22T02:45:18.587Z,60.49
2019-04-22T02:46:32.840Z,61.44
2019-04-22T02:47:27.109Z,60.39
2019-04-22T02:48:34.103Z,60.68
2019-04-22T02:53:38.502Z,60.78
2019-04-22T02:55:23.112Z,61.83
2019-04-22T02:56:27.246Z,61.99
2019-04-22T02:57:35.816Z,62.11
2019-04-22T02:58:35.354Z,61.89
2019-04-22T02:59:27.943Z,63.99
2019-04-22T03:00:21.807Z,63.23
2019-04-22T03:02:19.323Z,63.42
2019-04-22T03:03:31.170Z,63.60
2019-04-22T03:04:20.691Z,62.75
2019-04-22T03:05:27.980Z,62.94
2019-04-22T03:07:21.189Z,63.04
2019-04-22T03:08:25.585Z,62.27
2019-04-22T03:09:18.102Z,62.56
2019-04-22T03:11:11.500Z,63.51
2019-04-22T03:12:11.539Z,63.32
2019-04-22T03:13:00.057Z,62.94
2019-04-22T03:14:03.283Z,62.84
2019-04-22T03:14:53.344Z,63.70
2019-04-22T03:16:14.058Z,63.99
2019-04-22T03:16:59.720Z,63.23
2019-04-22T03:18:00.928Z,62.84
2019-04-22T03:19:04.138Z,62.75
2019-04-22T03:20:09.087Z,63.13
2019-04-22T03:22:00.790Z,63.04
2019-04-22T03:23:10.848Z,62.65
2019-04-22T03:27:00.915Z,62.30
2019-04-22T03:27:54.206Z,63.26
2019-04-22T03:28:54.840Z,62.88
2019-04-22T03:30:36.872Z,63.13
2019-04-22T03:33:12.020Z,63.51
2019-04-22T03:36:05.782Z,62.40
2019-04-22T03:38:13.922Z,61.92
2019-04-22T03:39:19.419Z,61.83
2019-04-22T03:40:07.343Z,60.87
2019-04-22T03:41:05.583Z,61.83
2019-04-22T03:42:04.854Z,61.16
2019-04-22T03:44:23.527Z,61.63
2019-04-22T03:45:46.418Z,61.07
2019-04-22T03:47:12.157Z,61.35
2019-04-22T03:48:04.574Z,61.44
2019-04-22T03:49:11.684Z,61.92
2019-04-22T03:51:07.506Z,61.83
2019-04-22T03:53:04.098Z,61.54
2019-04-22T03:54:16.853Z,61.35
2019-04-22T03:55:15.729Z,62.11
2019-04-22T03:56:02.479Z,61.07
2019-04-22T03:58:11.107Z,62.49
2019-04-22T03:59:09.653Z,62.78
2019-04-22T04:00:03.932Z,62.88
2019-04-22T04:01:18.323Z,63.92
2019-04-22T04:03:04.650Z,64.02
2019-04-22T04:04:09.293Z,63.92
2019-04-22T04:04:52.397Z,63.80
2019-04-22T04:08:20.160Z,65.13
2019-04-22T04:08:59.248Z,64.65
2019-04-22T04:10:01.392Z,65.23
2019-04-22T04:10:52.727Z,66.38
2019-04-22T04:12:01.891Z,64.94
2019-04-22T04:13:02.906Z,66.47
2019-04-22T04:14:05.469Z,65.89
2019-04-22T04:15:46.618Z,65.23
2019-04-22T04:18:13.353Z,65.13
2019-04-22T04:19:13.790Z,65.61
2019-04-22T04:21:57.851Z,65.04
2019-04-22T04:25:54.267Z,65.42
2019-04-22T04:27:06.739Z,65.80
2019-04-22T04:28:24.423Z,64.56
2019-04-22T04:29:05.978Z,63.80
2019-04-22T04:31:17.548Z,63.83
2019-04-22T04:32:16.523Z,62.88
2019-04-22T04:33:54.548Z,62.78
2019-04-22T04:36:01.964Z,63.07
2019-04-22T04:39:00.358Z,62.68
2019-04-22T04:42:05.368Z,62.68
2019-04-22T04:42:54.456Z,62.97
2019-04-22T04:44:03.689Z,63.07
2019-04-22T04:45:12.466Z,62.68
2019-04-22T04:45:57.226Z,63.35
2019-04-22T04:50:01.493Z,64.50
2019-04-22T04:51:12.159Z,65.26
2019-04-22T04:52:19.770Z,65.23
2019-04-22T04:54:08.552Z,64.12
2019-04-22T04:55:05.433Z,64.21
2019-04-22T04:55:53.191Z,63.45
2019-04-22T04:57:09.377Z,64.02
2019-04-22T05:00:25.771Z,64.69
2019-04-22T05:00:57.196Z,64.78
2019-04-22T05:02:14.309Z,63.73
2019-04-22T05:04:00.270Z,63.45
2019-04-22T05:05:57.088Z,63.73
2019-04-22T05:06:59.919Z,62.97
2019-04-22T05:08:00.974Z,63.35
2019-04-22T05:09:11.625Z,63.45
2019-04-22T05:09:55.558Z,63.92
2019-04-22T05:12:22.137Z,63.16
2019-04-22T05:13:57.756Z,63.07
2019-04-22T05:16:03.148Z,63.73
2019-04-22T05:18:07.245Z,63.73
2019-04-22T05:18:51.073Z,63.92
2019-04-22T05:19:50.394Z,63.73
2019-04-22T05:21:01.266Z,62.97
2019-04-22T05:21:53.337Z,63.45
2019-04-22T05:22:44.257Z,63.26
2019-04-22T05:24:56.872Z,61.95
2019-04-22T05:25:40.347Z,63.20
2019-04-22T05:26:49.830Z,63.29
2019-04-22T05:27:45.337Z,63.64
2019-04-22T05:28:43.328Z,63.92
2019-04-22T05:30:00.656Z,64.59
2019-04-22T05:30:40.666Z,63.96
2019-04-22T05:32:33.842Z,63.00
2019-04-22T05:34:25.765Z,62.81
2019-04-22T05:35:23.016Z,63.29
2019-04-22T05:36:22.200Z,63.29
2019-04-22T05:37:20.624Z,63.67
2019-04-22T05:38:30.810Z,62.71
2019-04-22T05:39:16.839Z,62.34
2019-04-22T05:40:25.461Z,62.62
2019-04-22T05:41:23.332Z,63.00
2019-04-22T05:42:20.268Z,62.24
2019-04-22T05:43:21.593Z,62.71
2019-04-22T05:44:39.568Z,63.48
2019-04-22T05:46:15.353Z,63.10
2019-04-22T05:47:19.539Z,63.00
2019-04-22T05:48:18.839Z,63.96
2019-04-22T05:49:18.033Z,63.76
2019-04-22T05:50:20.367Z,63.57
2019-04-22T05:51:21.681Z,64.05
2019-04-22T05:52:14.877Z,64.72
2019-04-22T05:53:13.174Z,65.10
2019-04-22T05:54:20.953Z,64.81
2019-04-22T05:55:24.559Z,63.29
2019-04-22T05:56:28.185Z,63.29
2019-04-22T05:57:20.268Z,63.67
2019-04-22T05:58:15.373Z,64.25
2019-04-22T05:59:22.901Z,65.01
2019-04-22T06:00:22.827Z,63.76
2019-04-22T06:02:23.454Z,63.32
2019-04-22T06:03:16.735Z,63.70
2019-04-22T06:04:19.737Z,63.99
2019-04-22T06:05:17.066Z,64.18
2019-04-22T06:07:17.764Z,63.70
2019-04-22T06:08:19.687Z,62.37
2019-04-22T06:09:20.055Z,63.13
2019-04-22T06:10:24.399Z,63.03
2019-04-22T06:11:22.889Z,63.99
2019-04-22T06:12:12.176Z,64.18
2019-04-22T06:13:13.843Z,65.23
2019-04-22T06:14:13.930Z,64.65
2019-04-22T06:15:20.734Z,65.33
2019-04-22T06:16:18.555Z,63.89
2019-04-22T06:17:20.493Z,64.09
2019-04-22T06:19:18.538Z,63.16
2019-04-22T06:20:15.493Z,62.01
2019-04-22T06:21:22.524Z,62.40
2019-04-22T06:22:25.384Z,62.01
2019-04-22T06:23:24.167Z,62.11
2019-04-22T06:25:20.896Z,63.07
2019-04-22T06:26:20.685Z,64.05
2019-04-22T06:27:21.938Z,63.19
2019-04-22T06:28:25.870Z,62.33
2019-04-22T06:29:16.483Z,63.48
2019-04-22T06:30:15.367Z,61.76
2019-04-22T06:31:23.063Z,61.95
2019-04-22T06:32:28.200Z,63.07
2019-04-22T06:33:20.695Z,63.48
2019-04-22T06:34:17.787Z,64.05
2019-04-22T06:35:23.425Z,63.00
2019-04-22T06:36:15.574Z,61.95
2019-04-22T06:37:20.252Z,61.57
2019-04-22T06:38:30.490Z,61.38
2019-04-22T06:39:26.522Z,62.14
2019-04-22T06:40:16.418Z,61.28
2019-04-22T06:41:15.050Z,60.80
2019-04-22T06:42:16.402Z,63.00
2019-04-22T06:43:16.124Z,63.19
2019-04-22T06:44:21.465Z,61.98
2019-04-22T06:45:18.812Z,61.41
2019-04-22T06:46:17.315Z,60.93
2019-04-22T06:47:14.976Z,61.51
2019-04-22T06:48:19.208Z,59.78
2019-04-22T06:49:18.874Z,59.40
2019-04-22T06:50:16.922Z,59.11
2019-04-22T06:51:18.419Z,58.54
2019-04-22T06:53:33.214Z,61.69
2019-04-22T06:54:14.354Z,61.41
2019-04-22T06:55:16.402Z,58.44
2019-04-22T06:56:23.790Z,58.54
2019-04-22T06:57:11.550Z,58.95
2019-04-22T06:59:14.841Z,58.56
2019-04-22T07:00:22.861Z,59.14
2019-04-22T07:01:19.621Z,58.18
2019-04-22T07:02:16.593Z,57.23
2019-04-22T07:04:14.094Z,57.54
2019-04-22T07:05:19.675Z,58.98
2019-04-22T07:06:12.644Z,58.69
2019-04-22T07:07:12.333Z,58.31
2019-04-22T07:08:34.405Z,57.16
2019-04-22T07:10:23.665Z,56.77
2019-04-22T07:11:07.929Z,54.57
2019-04-22T07:12:11.942Z,54.89
2019-04-22T07:13:19.075Z,55.36
2019-04-22T07:14:09.295Z,55.08
2019-04-22T07:15:21.853Z,56.71
2019-04-22T07:16:15.041Z,56.61
2019-04-22T07:17:34.395Z,54.70
2019-04-22T07:18:18.514Z,54.89
2019-04-22T07:19:13.800Z,54.79
2019-04-22T07:20:10.966Z,54.82
2019-04-22T07:21:10.422Z,54.05
2019-04-22T07:22:23.583Z,53.48
2019-04-22T07:23:13.815Z,53.48
2019-04-22T07:24:27.817Z,53.48
2019-04-22T07:26:31.914Z,54.34
2019-04-22T07:27:34.690Z,54.34
2019-04-22T07:28:29.015Z,53.38
2019-04-22T07:29:32.647Z,52.81
2019-04-22T07:30:35.717Z,53.09
2019-04-22T07:31:36.868Z,53.77
2019-04-22T07:32:53.352Z,54.44
2019-04-22T07:34:33.271Z,53.09
2019-04-22T07:35:35.910Z,53.12
2019-04-22T07:36:54.700Z,50.99
2019-04-22T07:38:00.667Z,51.01
2019-04-22T07:39:35.607Z,53.12
2019-04-22T07:41:31.813Z,49.96
2019-04-22T07:42:32.833Z,51.20
2019-04-22T07:44:38.705Z,51.68
2019-04-22T07:45:40.895Z,52.16
2019-04-22T07:46:33.668Z,51.87
2019-04-22T07:47:38.311Z,52.09
2019-04-22T07:48:38.275Z,52.00
2019-04-22T07:50:43.080Z,53.53
2019-04-22T07:51:32.760Z,52.19
2019-04-22T07:52:38.847Z,49.98
2019-04-22T07:53:29.342Z,51.71
2019-04-22T07:54:32.702Z,51.61
2019-04-22T07:55:32.567Z,52.38
2019-04-22T07:56:31.691Z,51.61
2019-04-22T07:57:33.302Z,50.87
2019-04-22T07:58:28.963Z,51.54
2019-04-22T07:59:28.014Z,50.10
2019-04-22T08:00:35.726Z,50.68
2019-04-22T08:01:32.335Z,50.20
2019-04-22T08:02:32.793Z,49.72
2019-04-22T08:03:38.187Z,49.52
2019-04-22T08:04:51.292Z,49.52
2019-04-22T08:05:37.869Z,49.43
2019-04-22T08:06:29.645Z,52.31
2019-04-22T08:07:33.278Z,53.11
2019-04-22T08:08:33.997Z,49.46
2019-04-22T08:09:41.803Z,49.36
2019-04-22T08:12:34.897Z,48.88
2019-04-22T08:13:31.496Z,48.88
2019-04-22T08:14:34.575Z,49.26
2019-04-22T08:15:33.376Z,49.74
2019-04-22T08:16:33.865Z,49.36
2019-04-22T08:17:53.385Z,49.55
2019-04-22T08:20:28.919Z,50.34
2019-04-22T08:21:33.317Z,50.34
2019-04-22T08:22:27.218Z,50.05
2019-04-22T08:23:33.192Z,48.43
2019-04-22T08:24:35.617Z,49.00
2019-04-22T08:25:32.949Z,48.23
2019-04-22T08:26:33.271Z,48.13
2019-04-22T08:27:32.798Z,48.43
2019-04-22T08:28:31.922Z,47.85
2019-04-22T08:29:43.781Z,48.04
2019-04-22T08:30:33.806Z,48.23
2019-04-22T08:32:28.445Z,48.43
2019-04-22T08:33:38.202Z,47.75
2019-04-22T08:34:26.102Z,46.79
2019-04-22T08:35:50.257Z,46.31
2019-04-22T08:36:38.966Z,48.33
2019-04-22T08:39:40.632Z,48.35
2019-04-22T08:40:47.165Z,50.85
2019-04-22T08:42:28.002Z,48.16
2019-04-22T08:43:36.673Z,46.91
2019-04-22T08:44:40.188Z,46.72
2019-04-22T08:45:31.874Z,45.66
2019-04-22T08:46:34.064Z,48.35
2019-04-22T08:47:31.056Z,49.33
2019-04-22T08:48:30.850Z,47.51
2019-04-22T08:49:28.729Z,46.84
2019-04-22T08:50:26.872Z,48.57
2019-04-22T08:51:32.575Z,47.70
2019-04-22T08:52:54.462Z,47.03
2019-04-22T08:53:35.814Z,45.78
2019-04-22T08:54:26.011Z,47.63
2019-04-22T08:55:32.602Z,46.95
2019-04-22T09:00:12.990Z,45.70
2019-04-22T09:01:17.686Z,44.65
2019-04-22T09:02:20.488Z,45.03
2019-04-22T09:03:18.742Z,45.80
2019-04-22T09:04:11.927Z,45.80
2019-04-22T09:05:31.027Z,44.45
2019-04-22T09:08:19.098Z,43.68
2019-04-22T09:09:23.271Z,44.35
2019-04-22T09:10:21.887Z,45.03
2019-04-22T09:11:20.262Z,43.97
2019-04-22T09:13:14.402Z,43.49
2019-04-22T09:14:22.876Z,44.93
2019-04-22T09:15:23.122Z,42.72
2019-04-22T09:16:19.383Z,43.68
2019-04-22T09:17:14.655Z,42.53
2019-04-22T09:18:17.974Z,42.82
2019-04-22T09:19:12.246Z,43.71
2019-04-22T09:20:18.454Z,44.96
2019-04-22T09:21:18.739Z,43.90
2019-04-22T09:22:27.671Z,44.09
2019-04-22T09:23:27.953Z,43.71
2019-04-22T09:24:16.909Z,43.61
2019-04-22T09:25:06.684Z,43.51
2019-04-22T09:26:15.566Z,42.84
2019-04-22T09:27:33.193Z,43.61
2019-04-22T09:28:17.291Z,43.13
2019-04-22T09:29:23.600Z,43.23
2019-04-22T09:30:21.781Z,42.65
2019-04-22T09:31:11.099Z,42.84
2019-04-22T09:35:10.268Z,42.65
2019-04-22T09:36:18.000Z,42.55
2019-04-22T09:38:28.161Z,42.16
2019-04-22T09:39:15.721Z,41.97
2019-04-22T09:41:13.959Z,42.65
2019-04-22T09:42:09.081Z,42.07
2019-04-22T09:43:12.609Z,42.38
2019-04-22T09:44:09.331Z,41.61
2019-04-22T09:45:13.153Z,42.19
2019-04-22T09:46:14.867Z,43.15
2019-04-22T09:47:13.192Z,43.24
2019-04-22T09:49:12.257Z,41.32
2019-04-22T09:50:08.272Z,40.84
2019-04-22T09:51:07.068Z,40.74
2019-04-22T09:52:10.489Z,41.32
2019-04-22T09:54:02.360Z,41.03
2019-04-22T09:55:01.585Z,41.13
2019-04-22T09:55:56.792Z,40.76
2019-04-22T09:58:44.607Z,39.68
2019-04-22T09:59:43.795Z,40.74
2019-04-22T10:00:48.440Z,41.34
2019-04-22T10:03:45.175Z,40.28
2019-04-22T10:04:39.787Z,41.05
2019-04-22T10:05:40.846Z,41.82
2019-04-22T10:07:44.866Z,41.24
2019-04-22T10:10:35.444Z,40.37
2019-04-22T10:11:26.937Z,41.44
2019-04-22T10:12:25.241Z,41.34
2019-04-22T10:13:32.258Z,41.24
2019-04-22T10:15:07.960Z,41.05
2019-04-22T10:17:15.523Z,41.17
2019-04-22T10:18:09.321Z,41.46
2019-04-22T10:19:11.052Z,39.91
2019-04-22T10:20:10.234Z,39.53
2019-04-22T10:21:18.995Z,39.53
2019-04-22T10:22:11.601Z,39.72
2019-04-22T10:23:12.632Z,40.30
2019-04-22T10:24:09.304Z,40.11
2019-04-22T10:38:06.075Z,37.70
2019-04-22T10:43:51.064Z,37.81
2019-04-22T10:46:53.849Z,36.94
2019-04-22T10:47:54.269Z,36.94
2019-04-22T10:48:54.502Z,37.23
2019-04-22T10:49:56.295Z,37.71
2019-04-22T10:50:52.930Z,38.49
2019-04-22T10:51:55.480Z,38.10
2019-04-22T10:53:45.283Z,39.28
2019-04-22T10:54:45.525Z,38.89
2019-04-22T10:55:47.092Z,38.60
2019-04-22T10:56:45.282Z,38.99
2019-04-22T10:57:46.338Z,38.99
2019-04-22T10:58:44.930Z,39.47
2019-04-22T10:59:44.955Z,38.79
2019-04-22T11:00:45.300Z,38.89
2019-04-22T11:01:44.718Z,39.20
2019-04-22T11:02:47.847Z,38.64
2019-04-22T11:03:45.616Z,38.25
2019-04-22T11:04:45.974Z,37.87
2019-04-22T11:05:44.439Z,37.77
2019-04-22T11:06:52.151Z,38.06
2019-04-22T11:07:53.271Z,37.96
2019-04-22T11:08:52.347Z,38.45
2019-04-22T11:09:51.829Z,37.77
2019-04-22T11:11:00.408Z,36.90
2019-04-22T11:11:53.743Z,37.10
2019-04-22T11:12:45.180Z,37.87
2019-04-22T11:13:44.154Z,38.64
2019-04-22T11:14:43.815Z,37.12
2019-04-22T11:15:44.599Z,36.46
2019-04-22T11:16:43.680Z,36.46
2019-04-22T11:17:43.850Z,37.60
2019-04-22T11:18:43.542Z,36.80
2019-04-22T11:19:43.626Z,37.40
2019-04-22T11:20:44.029Z,39.04
2019-04-22T11:21:47.050Z,36.92
2019-04-22T11:22:44.552Z,36.46
2019-04-22T11:23:44.667Z,37.54
2019-04-22T11:24:44.351Z,37.73
2019-04-22T11:25:43.926Z,37.05
2019-04-22T11:26:43.204Z,36.66
2019-04-22T11:27:44.280Z,33.95
2019-04-22T11:28:43.431Z,34.34
2019-04-22T11:29:43.585Z,34.75
2019-04-22T11:30:42.897Z,34.84
2019-04-22T11:31:44.240Z,32.81
2019-04-22T11:32:42.582Z,32.82
2019-04-22T11:33:42.877Z,33.22
2019-04-22T11:34:42.891Z,34.78
2019-04-22T11:35:43.653Z,31.42
2019-04-22T11:36:43.011Z,30.84
2019-04-22T11:37:42.758Z,29.40
2019-04-22T11:38:48.610Z,28.41
2019-04-22T11:39:42.643Z,28.34
2019-04-22T11:40:45.990Z,28.44
2019-04-22T11:41:42.159Z,27.36
2019-04-22T11:42:41.919Z,28.14
2019-04-22T11:43:43.056Z,27.26
2019-04-22T11:44:43.169Z,28.15
2019-04-22T11:45:41.725Z,27.86
2019-04-22T11:46:43.138Z,28.38
2019-04-22T11:47:41.626Z,26.78
2019-04-22T11:48:42.411Z,28.85
2019-04-22T11:49:41.749Z,27.39
2019-04-22T11:50:42.097Z,26.98
2019-04-22T11:51:42.136Z,27.89
2019-04-22T11:52:42.631Z,27.00
2019-04-22T11:53:41.221Z,27.79
2019-04-22T11:54:41.311Z,27.40
2019-04-22T11:55:42.449Z,26.73
2019-04-22T11:56:41.144Z,27.01
2019-04-22T11:57:41.379Z,26.03
2019-04-22T11:58:40.909Z,26.62
2019-04-22T11:59:40.846Z,26.43
2019-04-22T12:00:41.092Z,27.90
2019-04-22T12:02:41.003Z,27.82
2019-04-22T12:03:41.887Z,25.87
2019-04-22T12:04:40.767Z,25.20
2019-04-22T12:06:41.889Z,25.30
2019-04-22T12:08:43.695Z,27.47
2019-04-22T12:09:41.700Z,24.35
2019-04-22T12:10:46.940Z,24.45
2019-04-22T12:11:40.792Z,24.44
2019-04-22T12:12:43.102Z,24.90
2019-04-22T12:13:40.051Z,25.30
2019-04-22T12:14:40.181Z,24.43
2019-04-22T12:15:40.797Z,23.93
2019-04-22T12:16:41.277Z,25.09
2019-04-22T12:17:40.459Z,24.72
2019-04-22T12:18:39.721Z,24.13
2019-04-22T12:19:40.119Z,24.83
2019-04-22T12:20:41.283Z,24.63
2019-04-22T12:21:39.524Z,24.02
2019-04-22T12:22:40.959Z,24.90
2019-04-22T12:23:39.407Z,25.37
2019-04-22T12:24:40.550Z,25.40
2019-04-22T12:25:47.696Z,24.91
2019-04-22T12:26:40.075Z,26.30
2019-04-22T12:27:39.170Z,24.38
2019-04-22T12:28:39.277Z,23.58
2019-04-22T12:29:39.054Z,24.26
2019-04-22T12:30:39.419Z,24.34
2019-04-22T12:31:39.935Z,24.54
2019-04-22T12:32:39.178Z,24.85
2019-04-22T12:33:39.322Z,24.37
2019-04-22T12:34:43.676Z,23.68
2019-04-22T12:35:38.910Z,23.78
2019-04-22T12:36:38.647Z,23.28
2019-04-22T12:37:46.788Z,24.34
2019-04-22T12:38:39.946Z,23.47
2019-04-22T12:39:39.247Z,23.49
2019-04-22T12:40:48.672Z,23.69
2019-04-22T12:41:38.389Z,23.30
2019-04-22T12:42:39.403Z,23.58
2019-04-22T12:43:38.729Z,23.50
2019-04-22T12:44:40.503Z,23.45
2019-04-22T12:45:38.563Z,24.44
2019-04-22T12:46:38.449Z,26.02
2019-04-22T12:47:40.144Z,24.07
2019-04-22T12:48:39.273Z,24.46
2019-04-22T12:49:40.597Z,23.47
2019-04-22T12:55:37.702Z,23.22
2019-04-22T12:56:37.646Z,23.51
2019-04-22T12:57:38.881Z,23.89
2019-04-22T12:58:37.983Z,22.41
2019-04-22T12:59:37.452Z,22.85
2019-04-22T13:00:38.431Z,25.05
2019-04-22T13:01:37.325Z,25.36
2019-04-22T13:02:37.177Z,26.14
2019-04-22T13:05:37.586Z,25.84
2019-04-22T13:06:37.560Z,25.84
2019-04-22T13:07:38.036Z,25.95
2019-04-22T13:08:38.108Z,26.14
2019-04-22T13:09:37.152Z,25.26
2019-04-22T13:10:46.854Z,25.27
2019-04-22T13:11:38.472Z,24.57
2019-04-22T13:12:37.132Z,26.62
2019-04-22T13:13:36.863Z,25.26
2019-04-22T13:14:36.897Z,25.26
2019-04-22T13:15:37.037Z,25.56
2019-04-22T13:16:36.322Z,25.85
2019-04-22T13:17:37.857Z,26.31
2019-04-22T13:18:43.436Z,26.59
2019-04-22T13:19:36.265Z,27.45
2019-04-22T13:20:36.511Z,28.32
2019-04-22T13:21:36.532Z,27.73
2019-04-22T13:22:36.896Z,27.54
2019-04-22T13:23:36.914Z,27.06
2019-04-22T13:24:36.180Z,27.62
2019-04-22T13:25:36.652Z,27.81
2019-04-22T13:26:36.016Z,28.77
2019-04-22T13:27:37.020Z,27.03
2019-04-22T13:28:36.792Z,28.09
2019-04-22T13:29:37.112Z,28.00
2019-04-22T13:30:36.894Z,28.77
2019-04-22T13:31:36.952Z,28.77
2019-04-22T13:32:36.794Z,28.68
2019-04-22T13:33:36.784Z,28.29
2019-04-22T13:34:42.330Z,28.77
2019-04-22T13:35:36.186Z,28.39
2019-04-22T13:36:36.340Z,28.77
2019-04-22T13:37:35.112Z,28.00
2019-04-22T13:38:35.392Z,28.87
2019-04-22T13:39:34.916Z,28.47
2019-04-22T13:40:34.927Z,29.44
2019-04-22T13:41:43.971Z,29.05
2019-04-22T13:42:35.422Z,30.11
2019-04-22T13:43:34.848Z,29.05
2019-04-22T13:44:35.588Z,29.34
2019-04-22T13:45:36.088Z,28.86
2019-04-22T13:46:35.613Z,29.55
2019-04-22T13:47:50.631Z,27.43
2019-04-22T13:49:00.628Z,30.63
2019-04-22T13:50:11.722Z,28.70
2019-04-22T13:51:05.723Z,27.92
2019-04-22T13:52:00.992Z,28.30
2019-04-22T13:53:24.158Z,28.02
2019-04-22T13:55:05.348Z,27.92
2019-04-22T13:55:16.153Z,27.64
2019-04-22T13:55:56.906Z,26.27
2019-04-22T13:56:55.138Z,27.13
2019-04-22T13:57:49.109Z,26.54
2019-04-22T13:58:49.858Z,27.81
2019-04-22T13:59:40.971Z,28.97
2019-04-22T14:00:34.493Z,27.71
2019-04-22T14:01:34.734Z,30.42
2019-04-22T14:02:34.659Z,28.77
2019-04-22T14:03:35.663Z,27.57
2019-04-22T14:04:34.714Z,26.15
2019-04-22T14:05:33.203Z,27.15
2019-04-22T14:06:34.517Z,25.90
2019-04-22T14:07:33.077Z,24.18
2019-04-22T14:08:33.233Z,24.18
2019-04-22T14:09:33.933Z,23.80
2019-04-22T14:10:34.290Z,24.39
2019-04-22T14:12:16.301Z,24.95
2019-04-22T14:13:16.150Z,23.79
2019-04-22T14:14:15.644Z,23.84
2019-04-22T14:15:15.872Z,24.41
2019-04-22T14:16:15.361Z,25.67
2019-04-22T14:17:15.010Z,25.16
2019-04-22T14:18:15.067Z,26.32
2019-04-22T14:19:16.040Z,25.82
2019-04-22T14:20:15.139Z,25.73
2019-04-22T14:21:15.025Z,26.01
2019-04-22T14:22:15.962Z,26.00
2019-04-22T14:23:15.935Z,26.57
2019-04-22T14:24:15.798Z,26.57
2019-04-22T14:25:14.685Z,26.96
2019-04-22T14:26:15.461Z,26.67
2019-04-22T14:27:27.924Z,26.39
2019-04-22T14:29:15.641Z,26.54
2019-04-22T14:30:14.800Z,26.18
2019-04-22T14:31:14.760Z,23.85
2019-04-22T14:33:14.136Z,24.66
2019-04-22T14:34:15.564Z,24.05
2019-04-22T14:35:15.282Z,24.04
2019-04-22T14:36:15.234Z,24.06
2019-04-22T14:37:14.220Z,23.97
2019-04-22T14:39:13.647Z,23.40
2019-04-22T14:40:14.701Z,22.72
2019-04-22T14:41:32.764Z,22.41
2019-04-22T14:42:36.420Z,23.35
2019-04-22T14:43:39.562Z,23.93
2019-04-22T14:44:03.614Z,26.40
2019-04-22T14:44:12.632Z,24.07
2019-04-22T14:45:44.582Z,24.48
2019-04-22T14:46:47.803Z,25.67
2019-04-22T14:47:39.759Z,23.93
2019-04-22T14:48:41.887Z,22.67
2019-04-22T14:49:37.081Z,21.42
2019-04-22T14:50:35.162Z,23.96
2019-04-22T14:51:33.094Z,22.99
2019-04-22T14:52:34.526Z,21.13
2019-04-22T14:53:30.859Z,22.60
2019-04-22T14:54:28.458Z,21.01
2019-04-22T14:55:17.497Z,21.39
2019-04-22T14:56:12.873Z,22.84
2019-04-22T14:57:12.951Z,23.14
2019-04-22T14:58:13.063Z,22.76
2019-04-22T14:59:13.369Z,22.77
2019-04-22T15:00:13.601Z,22.69
2019-04-22T15:01:12.945Z,23.10
2019-04-22T15:02:12.706Z,21.52
2019-04-22T15:03:13.463Z,21.44
2019-04-22T15:04:13.349Z,20.43
2019-04-22T15:05:12.287Z,20.78
2019-04-22T15:06:12.631Z,23.32
2019-04-22T15:07:12.753Z,23.30
2019-04-22T15:08:13.128Z,23.99
2019-04-22T15:09:12.222Z,24.08
2019-04-22T15:10:11.832Z,23.30
2019-04-22T15:11:13.102Z,24.38
2019-04-22T15:12:20.546Z,22.71
2019-04-22T15:13:11.717Z,23.49
2019-04-22T15:14:11.721Z,23.47
2019-04-22T15:15:11.540Z,23.38
2019-04-22T15:16:11.878Z,25.05
2019-04-22T15:17:11.424Z,24.16
2019-04-22T15:18:11.368Z,24.45
2019-04-22T15:19:11.717Z,25.24
2019-04-22T15:20:11.940Z,25.34
2019-04-22T15:21:11.224Z,24.13
2019-04-22T15:22:12.492Z,24.12